sensor_id;sensor_type;location;lat;lon;timestamp;P1;durP1;ratioP1;P2;durP2;ratioP2
24147;SDS011;12309;51.450;-2.624;2023-04-23T00:01:29;20.60;;;13.23;;
24147;SDS011;12309;51.450;-2.624;2023-04-23T00:03:59;18.73;;;13.13;;
24147;SDS011;12309;51.450;-2.624;2023-04-23T00:06:25;19.73;;;13.73;;
24147;SDS011;12309;51.450;-2.624;2023-04-23T00:08:53;20.13;;;13.20;;
24147;SDS011;12309;51.450;-2.624;2023-04-23T00:11:19;19.43;;;13.27;;
24147;SDS011;12309;51.450;-2.624;2023-04-23T00:13:45;19.27;;;12.47;;
24147;SDS011;12309;51.450;-2.624;2023-04-23T00:16:13;18.47;;;12.57;;
24147;SDS011;12309;51.450;-2.624;2023-04-23T00:18:39;18.97;;;13.67;;
24147;SDS011;12309;51.450;-2.624;2023-04-23T00:21:05;19.47;;;13.40;;
24147;SDS011;12309;51.450;-2.624;2023-04-23T00:23:32;18.00;;;12.83;;
24147;SDS011;12309;51.450;-2.624;2023-04-23T00:25:58;18.30;;;12.87;;
24147;SDS011;12309;51.450;-2.624;2023-04-23T00:28:23;20.27;;;13.40;;
24147;SDS011;12309;51.450;-2.624;2023-04-23T00:30:49;20.93;;;14.20;;
24147;SDS011;12309;51.450;-2.624;2023-04-23T00:33:15;21.33;;;14.27;;
24147;SDS011;12309;51.450;-2.624;2023-04-23T00:35:40;22.67;;;14.50;;
24147;SDS011;12309;51.450;-2.624;2023-04-23T00:38:06;22.20;;;14.53;;
24147;SDS011;12309;51.450;-2.624;2023-04-23T00:40:32;23.53;;;14.97;;
24147;SDS011;12309;51.450;-2.624;2023-04-23T00:42:57;27.57;;;16.83;;
24147;SDS011;12309;51.450;-2.624;2023-04-23T00:45:24;25.10;;;15.50;;
24147;SDS011;12309;51.450;-2.624;2023-04-23T00:47:49;24.23;;;15.13;;
24147;SDS011;12309;51.450;-2.624;2023-04-23T00:50:15;25.87;;;16.40;;
24147;SDS011;12309;51.450;-2.624;2023-04-23T00:52:41;22.87;;;15.97;;
24147;SDS011;12309;51.450;-2.624;2023-04-23T00:55:07;28.23;;;17.03;;
24147;SDS011;12309;51.450;-2.624;2023-04-23T00:57:36;26.30;;;17.90;;
24147;SDS011;12309;51.450;-2.624;2023-04-23T01:00:03;27.80;;;17.13;;
24147;SDS011;12309;51.450;-2.624;2023-04-23T01:02:30;32.60;;;17.67;;
24147;SDS011;12309;51.450;-2.624;2023-04-23T01:04:56;27.90;;;17.63;;
24147;SDS011;12309;51.450;-2.624;2023-04-23T01:07:23;29.40;;;17.80;;
24147;SDS011;12309;51.450;-2.624;2023-04-23T01:09:51;27.50;;;17.90;;
24147;SDS011;12309;51.450;-2.624;2023-04-23T01:12:17;28.33;;;17.47;;
24147;SDS011;12309;51.450;-2.624;2023-04-23T01:14:43;27.80;;;17.73;;
24147;SDS011;12309;51.450;-2.624;2023-04-23T01:17:09;27.17;;;17.70;;
24147;SDS011;12309;51.450;-2.624;2023-04-23T01:19:36;26.63;;;17.43;;
24147;SDS011;12309;51.450;-2.624;2023-04-23T01:22:02;26.23;;;17.47;;
24147;SDS011;12309;51.450;-2.624;2023-04-23T01:24:32;26.17;;;16.90;;
24147;SDS011;12309;51.450;-2.624;2023-04-23T01:26:58;23.63;;;16.60;;
24147;SDS011;12309;51.450;-2.624;2023-04-23T01:29:25;24.60;;;16.37;;
24147;SDS011;12309;51.450;-2.624;2023-04-23T01:31:52;28.90;;;16.90;;
24147;SDS011;12309;51.450;-2.624;2023-04-23T01:34:18;27.27;;;17.63;;
24147;SDS011;12309;51.450;-2.624;2023-04-23T01:36:44;25.60;;;17.30;;
24147;SDS011;12309;51.450;-2.624;2023-04-23T01:39:11;25.37;;;17.17;;
24147;SDS011;12309;51.450;-2.624;2023-04-23T01:41:37;27.10;;;18.03;;
24147;SDS011;12309;51.450;-2.624;2023-04-23T01:44:03;26.40;;;17.93;;
24147;SDS011;12309;51.450;-2.624;2023-04-23T01:46:29;29.10;;;18.40;;
24147;SDS011;12309;51.450;-2.624;2023-04-23T01:48:55;28.20;;;18.10;;
24147;SDS011;12309;51.450;-2.624;2023-04-23T01:51:21;27.70;;;18.10;;
24147;SDS011;12309;51.450;-2.624;2023-04-23T01:53:49;27.60;;;18.50;;
24147;SDS011;12309;51.450;-2.624;2023-04-23T01:56:15;28.33;;;18.17;;
24147;SDS011;12309;51.450;-2.624;2023-04-23T01:58:43;27.17;;;18.23;;
24147;SDS011;12309;51.450;-2.624;2023-04-23T02:01:09;28.57;;;18.90;;
24147;SDS011;12309;51.450;-2.624;2023-04-23T02:03:34;27.40;;;18.43;;
24147;SDS011;12309;51.450;-2.624;2023-04-23T02:06:00;29.27;;;18.83;;
24147;SDS011;12309;51.450;-2.624;2023-04-23T02:08:26;31.20;;;19.37;;
24147;SDS011;12309;51.450;-2.624;2023-04-23T02:10:52;30.27;;;19.47;;
24147;SDS011;12309;51.450;-2.624;2023-04-23T02:13:18;30.60;;;19.73;;
24147;SDS011;12309;51.450;-2.624;2023-04-23T02:15:43;26.83;;;18.50;;
24147;SDS011;12309;51.450;-2.624;2023-04-23T02:18:09;26.33;;;18.17;;
24147;SDS011;12309;51.450;-2.624;2023-04-23T02:20:35;29.83;;;18.60;;
24147;SDS011;12309;51.450;-2.624;2023-04-23T02:23:04;28.50;;;18.73;;
24147;SDS011;12309;51.450;-2.624;2023-04-23T02:25:31;27.83;;;18.67;;
24147;SDS011;12309;51.450;-2.624;2023-04-23T02:27:57;30.97;;;19.10;;
24147;SDS011;12309;51.450;-2.624;2023-04-23T02:30:23;29.37;;;19.07;;
24147;SDS011;12309;51.450;-2.624;2023-04-23T02:32:49;30.07;;;18.53;;
24147;SDS011;12309;51.450;-2.624;2023-04-23T02:35:16;29.97;;;18.20;;
24147;SDS011;12309;51.450;-2.624;2023-04-23T02:37:41;24.93;;;17.57;;
24147;SDS011;12309;51.450;-2.624;2023-04-23T02:40:07;30.67;;;18.63;;
24147;SDS011;12309;51.450;-2.624;2023-04-23T02:42:33;27.40;;;17.17;;
24147;SDS011;12309;51.450;-2.624;2023-04-23T02:44:59;30.30;;;17.10;;
24147;SDS011;12309;51.450;-2.624;2023-04-23T02:47:24;28.67;;;17.53;;
24147;SDS011;12309;51.450;-2.624;2023-04-23T02:49:50;27.00;;;17.30;;
24147;SDS011;12309;51.450;-2.624;2023-04-23T02:52:16;23.83;;;16.97;;
24147;SDS011;12309;51.450;-2.624;2023-04-23T02:54:41;25.53;;;17.33;;
24147;SDS011;12309;51.450;-2.624;2023-04-23T02:57:07;24.57;;;16.53;;
24147;SDS011;12309;51.450;-2.624;2023-04-23T02:59:33;26.97;;;17.20;;
24147;SDS011;12309;51.450;-2.624;2023-04-23T03:01:58;24.80;;;17.20;;
24147;SDS011;12309;51.450;-2.624;2023-04-23T03:04:24;25.47;;;16.73;;
24147;SDS011;12309;51.450;-2.624;2023-04-23T03:06:50;24.00;;;16.63;;
24147;SDS011;12309;51.450;-2.624;2023-04-23T03:09:15;25.03;;;16.93;;
24147;SDS011;12309;51.450;-2.624;2023-04-23T03:11:41;24.13;;;16.53;;
24147;SDS011;12309;51.450;-2.624;2023-04-23T03:14:07;25.87;;;16.77;;
24147;SDS011;12309;51.450;-2.624;2023-04-23T03:16:32;24.97;;;16.87;;
24147;SDS011;12309;51.450;-2.624;2023-04-23T03:18:58;28.70;;;18.20;;
24147;SDS011;12309;51.450;-2.624;2023-04-23T03:21:25;27.67;;;17.50;;
24147;SDS011;12309;51.450;-2.624;2023-04-23T03:23:51;30.10;;;17.73;;
24147;SDS011;12309;51.450;-2.624;2023-04-23T03:26:16;28.53;;;17.47;;
24147;SDS011;12309;51.450;-2.624;2023-04-23T03:28:42;30.83;;;18.10;;
24147;SDS011;12309;51.450;-2.624;2023-04-23T03:31:08;27.37;;;17.77;;
24147;SDS011;12309;51.450;-2.624;2023-04-23T03:33:33;29.30;;;19.10;;
24147;SDS011;12309;51.450;-2.624;2023-04-23T03:35:59;28.87;;;18.13;;
24147;SDS011;12309;51.450;-2.624;2023-04-23T03:38:25;24.67;;;17.23;;
24147;SDS011;12309;51.450;-2.624;2023-04-23T03:40:51;28.53;;;18.97;;
24147;SDS011;12309;51.450;-2.624;2023-04-23T03:43:16;30.30;;;19.50;;
24147;SDS011;12309;51.450;-2.624;2023-04-23T03:45:42;29.53;;;18.80;;
24147;SDS011;12309;51.450;-2.624;2023-04-23T03:48:09;27.43;;;18.70;;
24147;SDS011;12309;51.450;-2.624;2023-04-23T03:50:34;29.57;;;18.87;;
24147;SDS011;12309;51.450;-2.624;2023-04-23T03:53:04;27.37;;;19.13;;
24147;SDS011;12309;51.450;-2.624;2023-04-23T03:55:30;29.80;;;19.13;;
24147;SDS011;12309;51.450;-2.624;2023-04-23T03:57:55;25.90;;;18.60;;
24147;SDS011;12309;51.450;-2.624;2023-04-23T04:00:23;29.90;;;19.00;;
24147;SDS011;12309;51.450;-2.624;2023-04-23T04:02:49;27.70;;;18.90;;
24147;SDS011;12309;51.450;-2.624;2023-04-23T04:05:15;25.60;;;18.20;;
24147;SDS011;12309;51.450;-2.624;2023-04-23T04:07:40;31.17;;;19.43;;
24147;SDS011;12309;51.450;-2.624;2023-04-23T04:10:06;32.10;;;19.47;;
24147;SDS011;12309;51.450;-2.624;2023-04-23T04:12:32;29.03;;;19.10;;
24147;SDS011;12309;51.450;-2.624;2023-04-23T04:14:58;31.87;;;19.97;;
24147;SDS011;12309;51.450;-2.624;2023-04-23T04:17:23;28.33;;;19.20;;
24147;SDS011;12309;51.450;-2.624;2023-04-23T04:19:49;30.87;;;20.00;;
24147;SDS011;12309;51.450;-2.624;2023-04-23T04:22:15;30.00;;;18.63;;
24147;SDS011;12309;51.450;-2.624;2023-04-23T04:24:41;29.40;;;18.97;;
24147;SDS011;12309;51.450;-2.624;2023-04-23T04:27:07;31.13;;;19.70;;
24147;SDS011;12309;51.450;-2.624;2023-04-23T04:29:33;33.47;;;20.30;;
24147;SDS011;12309;51.450;-2.624;2023-04-23T04:31:59;35.57;;;20.03;;
24147;SDS011;12309;51.450;-2.624;2023-04-23T04:34:25;32.13;;;19.83;;
24147;SDS011;12309;51.450;-2.624;2023-04-23T04:36:51;38.13;;;22.07;;
24147;SDS011;12309;51.450;-2.624;2023-04-23T04:39:18;34.00;;;20.07;;
24147;SDS011;12309;51.450;-2.624;2023-04-23T04:41:44;34.67;;;20.60;;
24147;SDS011;12309;51.450;-2.624;2023-04-23T04:44:10;34.20;;;21.27;;
24147;SDS011;12309;51.450;-2.624;2023-04-23T04:46:38;33.73;;;20.63;;
24147;SDS011;12309;51.450;-2.624;2023-04-23T04:49:05;37.33;;;21.13;;
24147;SDS011;12309;51.450;-2.624;2023-04-23T04:51:32;37.73;;;22.20;;
24147;SDS011;12309;51.450;-2.624;2023-04-23T04:53:59;35.90;;;21.07;;
24147;SDS011;12309;51.450;-2.624;2023-04-23T04:56:24;35.40;;;20.90;;
24147;SDS011;12309;51.450;-2.624;2023-04-23T04:58:50;35.03;;;21.13;;
24147;SDS011;12309;51.450;-2.624;2023-04-23T05:01:16;36.80;;;21.73;;
24147;SDS011;12309;51.450;-2.624;2023-04-23T05:03:42;34.10;;;21.27;;
24147;SDS011;12309;51.450;-2.624;2023-04-23T05:06:08;32.80;;;21.23;;
24147;SDS011;12309;51.450;-2.624;2023-04-23T05:08:34;38.03;;;22.40;;
24147;SDS011;12309;51.450;-2.624;2023-04-23T05:11:00;36.53;;;21.93;;
24147;SDS011;12309;51.450;-2.624;2023-04-23T05:13:27;37.47;;;22.13;;
24147;SDS011;12309;51.450;-2.624;2023-04-23T05:15:53;34.83;;;21.10;;
24147;SDS011;12309;51.450;-2.624;2023-04-23T05:18:19;36.80;;;21.37;;
24147;SDS011;12309;51.450;-2.624;2023-04-23T05:20:45;33.20;;;21.03;;
24147;SDS011;12309;51.450;-2.624;2023-04-23T05:23:10;31.87;;;20.93;;
24147;SDS011;12309;51.450;-2.624;2023-04-23T05:25:36;34.77;;;21.47;;
24147;SDS011;12309;51.450;-2.624;2023-04-23T05:28:02;33.20;;;20.30;;
24147;SDS011;12309;51.450;-2.624;2023-04-23T05:30:28;33.37;;;20.33;;
24147;SDS011;12309;51.450;-2.624;2023-04-23T05:32:54;37.47;;;20.40;;
24147;SDS011;12309;51.450;-2.624;2023-04-23T05:35:20;33.27;;;20.43;;
24147;SDS011;12309;51.450;-2.624;2023-04-23T05:37:46;33.67;;;20.20;;
24147;SDS011;12309;51.450;-2.624;2023-04-23T05:40:11;32.13;;;20.37;;
24147;SDS011;12309;51.450;-2.624;2023-04-23T05:42:37;37.30;;;20.53;;
24147;SDS011;12309;51.450;-2.624;2023-04-23T05:45:03;32.70;;;20.17;;
24147;SDS011;12309;51.450;-2.624;2023-04-23T05:47:29;32.40;;;19.83;;
24147;SDS011;12309;51.450;-2.624;2023-04-23T05:49:55;40.70;;;21.13;;
24147;SDS011;12309;51.450;-2.624;2023-04-23T05:52:23;34.73;;;21.53;;
24147;SDS011;12309;51.450;-2.624;2023-04-23T05:54:49;38.50;;;21.53;;
24147;SDS011;12309;51.450;-2.624;2023-04-23T05:57:15;36.50;;;21.83;;
24147;SDS011;12309;51.450;-2.624;2023-04-23T05:59:41;36.23;;;21.50;;
24147;SDS011;12309;51.450;-2.624;2023-04-23T06:02:07;37.53;;;21.97;;
24147;SDS011;12309;51.450;-2.624;2023-04-23T06:04:34;45.57;;;21.67;;
24147;SDS011;12309;51.450;-2.624;2023-04-23T06:07:00;42.20;;;22.97;;
24147;SDS011;12309;51.450;-2.624;2023-04-23T06:09:26;38.13;;;21.37;;
24147;SDS011;12309;51.450;-2.624;2023-04-23T06:11:52;36.87;;;21.87;;
24147;SDS011;12309;51.450;-2.624;2023-04-23T06:14:18;38.00;;;22.70;;
24147;SDS011;12309;51.450;-2.624;2023-04-23T06:16:44;45.07;;;21.33;;
24147;SDS011;12309;51.450;-2.624;2023-04-23T06:19:10;35.83;;;22.23;;
24147;SDS011;12309;51.450;-2.624;2023-04-23T06:21:36;39.73;;;21.37;;
24147;SDS011;12309;51.450;-2.624;2023-04-23T06:24:01;36.87;;;21.47;;
24147;SDS011;12309;51.450;-2.624;2023-04-23T06:26:27;37.80;;;21.97;;
24147;SDS011;12309;51.450;-2.624;2023-04-23T06:28:53;39.03;;;22.50;;
24147;SDS011;12309;51.450;-2.624;2023-04-23T06:31:18;43.03;;;22.63;;
24147;SDS011;12309;51.450;-2.624;2023-04-23T06:33:44;42.60;;;22.47;;
24147;SDS011;12309;51.450;-2.624;2023-04-23T06:36:10;38.87;;;21.83;;
24147;SDS011;12309;51.450;-2.624;2023-04-23T06:38:35;42.37;;;23.10;;
24147;SDS011;12309;51.450;-2.624;2023-04-23T06:41:02;41.40;;;22.90;;
24147;SDS011;12309;51.450;-2.624;2023-04-23T06:43:28;36.70;;;21.53;;
24147;SDS011;12309;51.450;-2.624;2023-04-23T06:45:54;40.37;;;23.07;;
24147;SDS011;12309;51.450;-2.624;2023-04-23T06:48:20;36.10;;;20.70;;
24147;SDS011;12309;51.450;-2.624;2023-04-23T06:50:46;37.40;;;22.00;;
24147;SDS011;12309;51.450;-2.624;2023-04-23T06:53:12;33.77;;;20.70;;
24147;SDS011;12309;51.450;-2.624;2023-04-23T06:55:38;34.63;;;20.83;;
24147;SDS011;12309;51.450;-2.624;2023-04-23T06:58:04;36.87;;;20.63;;
24147;SDS011;12309;51.450;-2.624;2023-04-23T07:00:31;35.13;;;19.60;;
24147;SDS011;12309;51.450;-2.624;2023-04-23T07:02:57;30.70;;;19.57;;
24147;SDS011;12309;51.450;-2.624;2023-04-23T07:05:22;32.77;;;20.53;;
24147;SDS011;12309;51.450;-2.624;2023-04-23T07:07:48;32.13;;;19.87;;
24147;SDS011;12309;51.450;-2.624;2023-04-23T07:10:14;32.93;;;21.07;;
24147;SDS011;12309;51.450;-2.624;2023-04-23T07:12:39;31.97;;;19.50;;
24147;SDS011;12309;51.450;-2.624;2023-04-23T07:15:05;30.23;;;19.60;;
24147;SDS011;12309;51.450;-2.624;2023-04-23T07:17:32;25.47;;;18.03;;
24147;SDS011;12309;51.450;-2.624;2023-04-23T07:19:58;32.27;;;19.57;;
24147;SDS011;12309;51.450;-2.624;2023-04-23T07:22:24;24.27;;;17.03;;
24147;SDS011;12309;51.450;-2.624;2023-04-23T07:24:50;27.80;;;17.37;;
24147;SDS011;12309;51.450;-2.624;2023-04-23T07:27:16;27.90;;;17.40;;
24147;SDS011;12309;51.450;-2.624;2023-04-23T07:29:42;30.87;;;17.27;;
24147;SDS011;12309;51.450;-2.624;2023-04-23T07:32:08;25.17;;;16.60;;
24147;SDS011;12309;51.450;-2.624;2023-04-23T07:34:33;26.60;;;16.87;;
24147;SDS011;12309;51.450;-2.624;2023-04-23T07:37:02;20.17;;;13.67;;
24147;SDS011;12309;51.450;-2.624;2023-04-23T07:39:28;20.40;;;12.90;;
24147;SDS011;12309;51.450;-2.624;2023-04-23T07:41:53;20.27;;;12.20;;
24147;SDS011;12309;51.450;-2.624;2023-04-23T07:44:20;18.77;;;12.17;;
24147;SDS011;12309;51.450;-2.624;2023-04-23T07:46:46;22.10;;;12.20;;
24147;SDS011;12309;51.450;-2.624;2023-04-23T07:49:12;17.73;;;11.33;;
24147;SDS011;12309;51.450;-2.624;2023-04-23T07:51:38;16.63;;;11.30;;
24147;SDS011;12309;51.450;-2.624;2023-04-23T07:54:03;20.90;;;12.87;;
24147;SDS011;12309;51.450;-2.624;2023-04-23T07:56:29;20.67;;;12.17;;
24147;SDS011;12309;51.450;-2.624;2023-04-23T07:58:56;20.23;;;12.33;;
24147;SDS011;12309;51.450;-2.624;2023-04-23T08:01:23;22.80;;;13.07;;
24147;SDS011;12309;51.450;-2.624;2023-04-23T08:03:49;21.83;;;12.93;;
24147;SDS011;12309;51.450;-2.624;2023-04-23T08:06:14;17.60;;;12.93;;
24147;SDS011;12309;51.450;-2.624;2023-04-23T08:08:40;20.50;;;13.43;;
24147;SDS011;12309;51.450;-2.624;2023-04-23T08:11:06;18.73;;;12.23;;
24147;SDS011;12309;51.450;-2.624;2023-04-23T08:13:32;20.83;;;13.60;;
24147;SDS011;12309;51.450;-2.624;2023-04-23T08:15:57;22.97;;;14.70;;
24147;SDS011;12309;51.450;-2.624;2023-04-23T08:18:23;20.47;;;14.53;;
24147;SDS011;12309;51.450;-2.624;2023-04-23T08:20:49;17.33;;;13.30;;
24147;SDS011;12309;51.450;-2.624;2023-04-23T08:23:14;18.70;;;12.10;;
24147;SDS011;12309;51.450;-2.624;2023-04-23T08:25:40;16.95;;;12.57;;
24147;SDS011;12309;51.450;-2.624;2023-04-23T08:28:06;16.40;;;11.67;;
24147;SDS011;12309;51.450;-2.624;2023-04-23T08:30:31;13.73;;;10.82;;
24147;SDS011;12309;51.450;-2.624;2023-04-23T08:32:57;13.65;;;10.00;;
24147;SDS011;12309;51.450;-2.624;2023-04-23T08:35:23;14.25;;;9.80;;
24147;SDS011;12309;51.450;-2.624;2023-04-23T08:37:48;14.07;;;9.38;;
24147;SDS011;12309;51.450;-2.624;2023-04-23T08:40:14;12.43;;;9.77;;
24147;SDS011;12309;51.450;-2.624;2023-04-23T08:42:52;10.95;;;8.70;;
24147;SDS011;12309;51.450;-2.624;2023-04-23T08:45:22;10.32;;;8.27;;
24147;SDS011;12309;51.450;-2.624;2023-04-23T08:47:48;10.27;;;8.70;;
24147;SDS011;12309;51.450;-2.624;2023-04-23T08:50:15;15.55;;;8.50;;
24147;SDS011;12309;51.450;-2.624;2023-04-23T08:53:02;9.98;;;7.20;;
24147;SDS011;12309;51.450;-2.624;2023-04-23T08:55:30;8.35;;;6.95;;
24147;SDS011;12309;51.450;-2.624;2023-04-23T08:57:59;9.57;;;7.13;;
24147;SDS011;12309;51.450;-2.624;2023-04-23T09:00:25;9.23;;;7.25;;
24147;SDS011;12309;51.450;-2.624;2023-04-23T09:02:51;10.02;;;7.38;;
24147;SDS011;12309;51.450;-2.624;2023-04-23T09:05:16;8.05;;;6.30;;
24147;SDS011;12309;51.450;-2.624;2023-04-23T09:07:42;9.55;;;6.35;;
24147;SDS011;12309;51.450;-2.624;2023-04-23T09:10:08;8.77;;;5.95;;
24147;SDS011;12309;51.450;-2.624;2023-04-23T09:12:36;7.50;;;5.45;;
24147;SDS011;12309;51.450;-2.624;2023-04-23T09:15:04;5.95;;;4.40;;
24147;SDS011;12309;51.450;-2.624;2023-04-23T09:17:36;7.65;;;4.68;;
24147;SDS011;12309;51.450;-2.624;2023-04-23T09:20:05;9.45;;;5.35;;
24147;SDS011;12309;51.450;-2.624;2023-04-23T09:25:08;6.32;;;4.38;;
24147;SDS011;12309;51.450;-2.624;2023-04-23T09:27:35;6.40;;;4.03;;
24147;SDS011;12309;51.450;-2.624;2023-04-23T09:30:01;6.80;;;3.95;;
24147;SDS011;12309;51.450;-2.624;2023-04-23T09:32:32;6.68;;;5.22;;
24147;SDS011;12309;51.450;-2.624;2023-04-23T09:35:01;6.13;;;4.50;;
24147;SDS011;12309;51.450;-2.624;2023-04-23T09:37:30;9.27;;;5.75;;
24147;SDS011;12309;51.450;-2.624;2023-04-23T09:40:00;25.60;;;15.23;;
24147;SDS011;12309;51.450;-2.624;2023-04-23T09:42:28;23.75;;;17.05;;
24147;SDS011;12309;51.450;-2.624;2023-04-23T09:45:04;7.90;;;4.90;;
24147;SDS011;12309;51.450;-2.624;2023-04-23T09:47:34;30.75;;;17.20;;
24147;SDS011;12309;51.450;-2.624;2023-04-23T09:50:03;271.85;;;117.78;;
24147;SDS011;12309;51.450;-2.624;2023-04-23T09:52:32;30.88;;;19.45;;
24147;SDS011;12309;51.450;-2.624;2023-04-23T09:55:02;10.18;;;6.05;;
24147;SDS011;12309;51.450;-2.624;2023-04-23T09:57:29;8.25;;;5.15;;
24147;SDS011;12309;51.450;-2.624;2023-04-23T09:59:59;7.32;;;5.90;;
24147;SDS011;12309;51.450;-2.624;2023-04-23T10:02:46;6.53;;;4.85;;
24147;SDS011;12309;51.450;-2.624;2023-04-23T10:05:17;3.70;;;3.28;;
24147;SDS011;12309;51.450;-2.624;2023-04-23T10:07:45;3.20;;;2.90;;
24147;SDS011;12309;51.450;-2.624;2023-04-23T10:10:13;4.80;;;3.10;;
24147;SDS011;12309;51.450;-2.624;2023-04-23T10:12:39;3.38;;;3.08;;
24147;SDS011;12309;51.450;-2.624;2023-04-23T10:15:05;4.95;;;3.17;;
24147;SDS011;12309;51.450;-2.624;2023-04-23T10:17:32;4.20;;;3.15;;
24147;SDS011;12309;51.450;-2.624;2023-04-23T10:20:00;3.33;;;2.63;;
24147;SDS011;12309;51.450;-2.624;2023-04-23T10:22:26;2.33;;;2.00;;
24147;SDS011;12309;51.450;-2.624;2023-04-23T10:24:54;2.67;;;2.42;;
24147;SDS011;12309;51.450;-2.624;2023-04-23T10:27:25;3.10;;;2.20;;
24147;SDS011;12309;51.450;-2.624;2023-04-23T10:29:53;3.13;;;2.55;;
24147;SDS011;12309;51.450;-2.624;2023-04-23T10:32:21;2.35;;;2.00;;
24147;SDS011;12309;51.450;-2.624;2023-04-23T10:34:48;3.03;;;2.58;;
24147;SDS011;12309;51.450;-2.624;2023-04-23T10:37:14;3.03;;;2.25;;
24147;SDS011;12309;51.450;-2.624;2023-04-23T10:39:43;3.60;;;2.00;;
24147;SDS011;12309;51.450;-2.624;2023-04-23T10:42:14;4.80;;;4.10;;
24147;SDS011;12309;51.450;-2.624;2023-04-23T10:44:41;6.47;;;5.13;;
24147;SDS011;12309;51.450;-2.624;2023-04-23T10:47:11;4.07;;;3.30;;
24147;SDS011;12309;51.450;-2.624;2023-04-23T10:49:38;3.38;;;2.90;;
24147;SDS011;12309;51.450;-2.624;2023-04-23T10:52:12;3.97;;;2.95;;
24147;SDS011;12309;51.450;-2.624;2023-04-23T10:54:42;1.60;;;1.40;;
24147;SDS011;12309;51.450;-2.624;2023-04-23T10:57:21;2.42;;;2.22;;
24147;SDS011;12309;51.450;-2.624;2023-04-23T10:59:53;2.60;;;2.30;;
24147;SDS011;12309;51.450;-2.624;2023-04-23T11:02:23;4.00;;;2.00;;
24147;SDS011;12309;51.450;-2.624;2023-04-23T11:04:53;3.70;;;1.75;;
24147;SDS011;12309;51.450;-2.624;2023-04-23T11:07:24;2.63;;;2.05;;
24147;SDS011;12309;51.450;-2.624;2023-04-23T11:09:53;2.70;;;2.13;;
24147;SDS011;12309;51.450;-2.624;2023-04-23T11:14:52;4.68;;;2.28;;
24147;SDS011;12309;51.450;-2.624;2023-04-23T11:22:37;2.35;;;2.15;;
24147;SDS011;12309;51.450;-2.624;2023-04-23T11:25:13;2.15;;;1.90;;
24147;SDS011;12309;51.450;-2.624;2023-04-23T11:27:52;7.95;;;3.20;;
24147;SDS011;12309;51.450;-2.624;2023-04-23T11:30:23;4.15;;;3.10;;
24147;SDS011;12309;51.450;-2.624;2023-04-23T11:32:50;5.10;;;3.40;;
24147;SDS011;12309;51.450;-2.624;2023-04-23T11:35:19;4.75;;;4.07;;
24147;SDS011;12309;51.450;-2.624;2023-04-23T11:37:47;4.65;;;4.00;;
24147;SDS011;12309;51.450;-2.624;2023-04-23T11:40:14;6.80;;;4.60;;
24147;SDS011;12309;51.450;-2.624;2023-04-23T11:42:49;5.32;;;4.18;;
24147;SDS011;12309;51.450;-2.624;2023-04-23T11:45:16;5.20;;;3.50;;
24147;SDS011;12309;51.450;-2.624;2023-04-23T11:47:47;5.63;;;4.20;;
24147;SDS011;12309;51.450;-2.624;2023-04-23T11:50:18;5.10;;;4.00;;
24147;SDS011;12309;51.450;-2.624;2023-04-23T11:52:44;4.22;;;3.83;;
24147;SDS011;12309;51.450;-2.624;2023-04-23T11:55:10;5.25;;;3.50;;
24147;SDS011;12309;51.450;-2.624;2023-04-23T11:57:40;4.90;;;3.60;;
24147;SDS011;12309;51.450;-2.624;2023-04-23T12:00:14;3.30;;;3.00;;
24147;SDS011;12309;51.450;-2.624;2023-04-23T12:02:57;4.00;;;3.60;;
24147;SDS011;12309;51.450;-2.624;2023-04-23T12:05:28;6.95;;;5.00;;
24147;SDS011;12309;51.450;-2.624;2023-04-23T12:08:14;4.15;;;3.05;;
24147;SDS011;12309;51.450;-2.624;2023-04-23T12:10:48;3.75;;;2.50;;
24147;SDS011;12309;51.450;-2.624;2023-04-23T12:13:20;4.43;;;3.58;;
24147;SDS011;12309;51.450;-2.624;2023-04-23T12:15:49;5.28;;;3.38;;
24147;SDS011;12309;51.450;-2.624;2023-04-23T12:18:16;4.90;;;3.88;;
24147;SDS011;12309;51.450;-2.624;2023-04-23T12:20:43;6.65;;;3.88;;
24147;SDS011;12309;51.450;-2.624;2023-04-23T12:23:09;4.95;;;4.03;;
24147;SDS011;12309;51.450;-2.624;2023-04-23T12:25:34;8.07;;;4.65;;
24147;SDS011;12309;51.450;-2.624;2023-04-23T12:28:03;7.43;;;5.68;;
24147;SDS011;12309;51.450;-2.624;2023-04-23T12:30:31;7.65;;;5.22;;
24147;SDS011;12309;51.450;-2.624;2023-04-23T12:33:01;7.28;;;5.00;;
24147;SDS011;12309;51.450;-2.624;2023-04-23T12:35:38;8.07;;;4.70;;
24147;SDS011;12309;51.450;-2.624;2023-04-23T12:38:20;7.18;;;3.38;;
24147;SDS011;12309;51.450;-2.624;2023-04-23T12:40:47;4.22;;;3.15;;
24147;SDS011;12309;51.450;-2.624;2023-04-23T12:43:12;4.07;;;2.65;;
24147;SDS011;12309;51.450;-2.624;2023-04-23T12:45:38;2.92;;;2.58;;
24147;SDS011;12309;51.450;-2.624;2023-04-23T12:48:03;3.95;;;2.83;;
24147;SDS011;12309;51.450;-2.624;2023-04-23T12:50:29;4.85;;;2.78;;
24147;SDS011;12309;51.450;-2.624;2023-04-23T12:52:55;5.10;;;2.70;;
24147;SDS011;12309;51.450;-2.624;2023-04-23T12:55:20;2.03;;;1.55;;
24147;SDS011;12309;51.450;-2.624;2023-04-23T12:57:46;3.88;;;2.08;;
24147;SDS011;12309;51.450;-2.624;2023-04-23T13:00:12;3.03;;;1.73;;
24147;SDS011;12309;51.450;-2.624;2023-04-23T13:02:38;3.47;;;1.52;;
24147;SDS011;12309;51.450;-2.624;2023-04-23T13:05:03;2.05;;;1.30;;
24147;SDS011;12309;51.450;-2.624;2023-04-23T13:07:29;2.03;;;1.40;;
24147;SDS011;12309;51.450;-2.624;2023-04-23T13:09:55;3.67;;;2.08;;
24147;SDS011;12309;51.450;-2.624;2023-04-23T13:12:21;2.58;;;1.70;;
24147;SDS011;12309;51.450;-2.624;2023-04-23T13:14:47;2.03;;;1.40;;
24147;SDS011;12309;51.450;-2.624;2023-04-23T13:17:13;1.50;;;1.35;;
24147;SDS011;12309;51.450;-2.624;2023-04-23T13:19:39;3.33;;;2.00;;
24147;SDS011;12309;51.450;-2.624;2023-04-23T13:22:04;2.78;;;2.10;;
24147;SDS011;12309;51.450;-2.624;2023-04-23T13:24:30;4.70;;;3.25;;
24147;SDS011;12309;51.450;-2.624;2023-04-23T13:26:56;2.85;;;2.20;;
24147;SDS011;12309;51.450;-2.624;2023-04-23T13:29:22;5.35;;;3.50;;
24147;SDS011;12309;51.450;-2.624;2023-04-23T13:31:48;3.83;;;2.70;;
24147;SDS011;12309;51.450;-2.624;2023-04-23T13:34:15;3.70;;;2.20;;
24147;SDS011;12309;51.450;-2.624;2023-04-23T13:36:40;2.47;;;1.67;;
24147;SDS011;12309;51.450;-2.624;2023-04-23T13:39:06;6.55;;;3.88;;
24147;SDS011;12309;51.450;-2.624;2023-04-23T13:41:33;5.20;;;2.88;;
24147;SDS011;12309;51.450;-2.624;2023-04-23T13:43:59;12.00;;;6.35;;
24147;SDS011;12309;51.450;-2.624;2023-04-23T13:46:25;10.07;;;6.53;;
24147;SDS011;12309;51.450;-2.624;2023-04-23T13:48:52;4.90;;;4.03;;
24147;SDS011;12309;51.450;-2.624;2023-04-23T13:51:17;6.60;;;4.30;;
24147;SDS011;12309;51.450;-2.624;2023-04-23T13:53:43;6.55;;;4.80;;
24147;SDS011;12309;51.450;-2.624;2023-04-23T13:56:08;9.88;;;6.03;;
24147;SDS011;12309;51.450;-2.624;2023-04-23T13:58:34;11.07;;;5.32;;
24147;SDS011;12309;51.450;-2.624;2023-04-23T14:01:00;12.05;;;5.82;;
24147;SDS011;12309;51.450;-2.624;2023-04-23T14:03:26;9.40;;;6.32;;
24147;SDS011;12309;51.450;-2.624;2023-04-23T14:05:51;11.00;;;7.45;;
24147;SDS011;12309;51.450;-2.624;2023-04-23T14:08:17;12.77;;;9.50;;
24147;SDS011;12309;51.450;-2.624;2023-04-23T14:10:42;13.82;;;9.75;;
24147;SDS011;12309;51.450;-2.624;2023-04-23T14:13:08;10.32;;;6.20;;
24147;SDS011;12309;51.450;-2.624;2023-04-23T14:15:34;12.90;;;9.23;;
24147;SDS011;12309;51.450;-2.624;2023-04-23T14:17:59;15.60;;;9.05;;
24147;SDS011;12309;51.450;-2.624;2023-04-23T14:20:25;17.48;;;10.13;;
24147;SDS011;12309;51.450;-2.624;2023-04-23T14:22:55;13.82;;;7.20;;
24147;SDS011;12309;51.450;-2.624;2023-04-23T14:25:29;14.10;;;8.98;;
24147;SDS011;12309;51.450;-2.624;2023-04-23T14:28:00;12.05;;;7.25;;